createdAt,value
2019-03-01T00:01:02.580Z,58.70
2019-03-01T00:03:32.054Z,55.50
2019-03-01T00:06:20.389Z,51.87
2019-03-01T00:09:38.682Z,55.90
2019-03-01T00:13:03.493Z,45.47
2019-03-01T00:16:31.599Z,50.70
2019-03-01T00:19:21.009Z,51.83
2019-03-01T00:22:40.950Z,73.23
2019-03-01T00:25:37.453Z,67.97
2019-03-01T00:28:54.398Z,59.60
2019-03-01T00:31:49.132Z,54.07
2019-03-01T00:35:05.446Z,49.73
2019-03-01T00:38:05.891Z,57.30
2019-03-01T00:41:08.631Z,54.33
2019-03-01T00:44:37.531Z,57.70
2019-03-01T00:47:04.997Z,54.27
2019-03-01T00:49:32.634Z,53.07
2019-03-01T00:52:00.187Z,59.10
2019-03-01T00:54:27.627Z,50.70
2019-03-01T00:56:55.127Z,55.27
2019-03-01T00:59:23.183Z,57.07
2019-03-01T01:01:50.795Z,53.80
2019-03-01T01:04:18.198Z,51.80
2019-03-01T01:06:46.107Z,50.80
2019-03-01T01:09:13.661Z,53.37
2019-03-01T01:11:41.190Z,53.63
2019-03-01T01:14:08.659Z,58.10
2019-03-01T01:16:36.256Z,55.70
2019-03-01T01:19:16.477Z,45.33
2019-03-01T01:21:44.656Z,54.73
2019-03-01T01:24:12.281Z,56.87
2019-03-01T01:26:39.823Z,52.80
2019-03-01T01:29:07.356Z,54.93
2019-03-01T01:31:34.921Z,54.83
2019-03-01T01:34:02.301Z,60.40
2019-03-01T01:36:29.743Z,58.67
2019-03-01T01:38:57.309Z,57.37
2019-03-01T01:41:24.877Z,51.90
2019-03-01T01:43:52.482Z,52.87
2019-03-01T01:46:19.986Z,56.20
2019-03-01T01:48:47.450Z,49.40
2019-03-01T01:51:14.873Z,49.03
2019-03-01T01:53:42.405Z,57.93
2019-03-01T01:56:09.881Z,45.63
2019-03-01T01:58:37.436Z,45.67
2019-03-01T02:01:04.838Z,51.30
2019-03-01T02:03:32.384Z,60.40
2019-03-01T02:05:59.928Z,56.40
2019-03-01T02:08:27.654Z,49.23
2019-03-01T02:10:55.131Z,53.70
2019-03-01T02:13:22.822Z,58.47
2019-03-01T02:15:50.206Z,47.20
2019-03-01T02:18:18.756Z,47.63
2019-03-01T02:20:46.216Z,48.47
2019-03-01T02:23:13.730Z,52.17
2019-03-01T02:25:41.271Z,57.03
2019-03-01T02:28:08.944Z,55.87
2019-03-01T02:30:36.503Z,57.57
2019-03-01T02:33:04.144Z,55.77
2019-03-01T02:35:31.869Z,52.97
2019-03-01T02:37:59.340Z,65.55
2019-03-01T02:40:27.812Z,60.10
2019-03-01T02:42:55.781Z,56.87
2019-03-01T02:45:23.414Z,49.47
2019-03-01T02:47:50.973Z,50.80
2019-03-01T02:50:18.878Z,49.93
2019-03-01T02:52:46.485Z,56.40
2019-03-01T02:55:15.583Z,48.37
2019-03-01T02:57:43.403Z,53.47
2019-03-01T03:00:14.231Z,52.83
2019-03-01T03:02:41.761Z,47.67
2019-03-01T03:05:09.260Z,52.97
2019-03-01T03:07:48.079Z,54.17
2019-03-01T03:10:16.741Z,44.27
2019-03-01T03:12:44.676Z,51.30
2019-03-01T03:15:12.877Z,46.77
2019-03-01T03:17:40.555Z,52.67
2019-03-01T03:20:08.518Z,56.50
2019-03-01T03:22:36.111Z,55.80
2019-03-01T03:25:04.744Z,58.50
2019-03-01T03:27:32.276Z,59.83
2019-03-01T03:30:00.048Z,54.30
2019-03-01T03:32:27.602Z,55.17
2019-03-01T03:34:55.193Z,53.17
2019-03-01T03:37:22.800Z,55.28
2019-03-01T03:40:03.016Z,54.10
2019-03-01T03:42:30.873Z,63.00
2019-03-01T03:44:58.420Z,54.73
2019-03-01T03:47:26.527Z,53.80
2019-03-01T03:49:54.032Z,52.87
2019-03-01T03:52:21.513Z,52.03
2019-03-01T03:54:49.081Z,41.10
2019-03-01T03:57:16.719Z,51.57
2019-03-01T03:59:45.153Z,54.47
2019-03-01T04:02:12.755Z,52.20
2019-03-01T04:04:40.318Z,53.17
2019-03-01T04:07:07.755Z,50.30
2019-03-01T04:09:35.444Z,46.87
2019-03-01T04:12:02.876Z,50.00
2019-03-01T04:14:30.638Z,54.93
2019-03-01T04:16:58.070Z,49.87
2019-03-01T04:19:25.910Z,53.00
2019-03-01T04:21:53.617Z,59.40
2019-03-01T04:24:21.195Z,56.70
2019-03-01T04:26:48.768Z,55.67
2019-03-01T04:29:17.401Z,56.70
2019-03-01T04:31:45.638Z,51.53
2019-03-01T04:34:13.366Z,46.60
2019-03-01T04:36:41.094Z,54.77
2019-03-01T04:39:08.617Z,55.07
2019-03-01T04:41:36.677Z,58.33
2019-03-01T04:44:04.276Z,55.70
2019-03-01T04:46:31.775Z,69.75
2019-03-01T04:48:59.262Z,62.97
2019-03-01T04:51:26.809Z,59.00
2019-03-01T04:53:54.327Z,60.80
2019-03-01T04:56:21.940Z,55.17
2019-03-01T04:58:50.025Z,59.60
2019-03-01T05:01:20.220Z,53.17
2019-03-01T05:03:47.804Z,51.43
2019-03-01T05:06:15.411Z,51.47
2019-03-01T05:08:42.863Z,56.13
2019-03-01T05:11:10.709Z,50.90
2019-03-01T05:13:38.250Z,50.40
2019-03-01T05:16:08.806Z,52.97
2019-03-01T05:18:36.459Z,54.83
2019-03-01T05:21:04.010Z,50.97
2019-03-01T05:23:31.316Z,53.90
2019-03-01T05:25:59.017Z,51.40
2019-03-01T05:28:26.568Z,55.60
2019-03-01T05:30:54.242Z,55.13
2019-03-01T05:33:21.744Z,55.80
2019-03-01T05:35:49.310Z,56.17
2019-03-01T05:38:21.742Z,58.73
2019-03-01T05:40:46.383Z,56.93
2019-03-01T05:43:13.797Z,60.70
2019-03-01T05:45:41.252Z,55.67
2019-03-01T05:48:08.964Z,71.62
2019-03-01T05:50:36.900Z,63.37
2019-03-01T05:53:04.993Z,54.10
2019-03-01T05:55:32.600Z,55.63
2019-03-01T05:58:36.875Z,53.73
2019-03-01T06:01:31.733Z,51.13
2019-03-01T06:04:35.961Z,53.27
2019-03-01T06:07:28.560Z,52.07
2019-03-01T06:10:03.973Z,44.40
2019-03-01T06:13:22.432Z,44.47
2019-03-01T06:16:06.978Z,39.57
2019-03-01T06:18:58.868Z,37.27
2019-03-01T06:22:17.842Z,34.67
2019-03-01T06:25:10.358Z,34.47
2019-03-01T06:28:18.882Z,31.17
2019-03-01T06:31:41.003Z,28.27
2019-03-01T06:34:38.668Z,29.00
2019-03-01T06:37:39.656Z,25.60
2019-03-01T06:41:17.978Z,23.17
2019-03-01T06:44:42.729Z,19.30
2019-03-01T06:47:40.916Z,20.67
2019-03-01T06:50:19.297Z,18.20
2019-03-01T06:52:47.031Z,17.40
2019-03-01T06:55:35.358Z,23.70
2019-03-01T06:58:03.066Z,19.48
2019-03-01T07:00:33.933Z,17.03
2019-03-01T07:03:01.461Z,17.57
2019-03-01T07:05:30.296Z,14.70
2019-03-01T07:07:57.914Z,14.40
2019-03-01T07:10:28.357Z,14.23
2019-03-01T07:12:56.041Z,16.20
2019-03-01T07:15:23.647Z,15.40
2019-03-01T07:17:51.179Z,15.27
2019-03-01T07:20:18.896Z,15.30
2019-03-01T07:22:46.401Z,15.30
2019-03-01T07:25:14.018Z,13.93
2019-03-01T07:27:41.742Z,14.73
2019-03-01T07:30:09.593Z,13.83
2019-03-01T07:32:37.265Z,13.23
2019-03-01T07:35:04.879Z,12.67
2019-03-01T07:37:32.553Z,12.30
2019-03-01T07:40:00.284Z,16.00
2019-03-01T07:42:27.821Z,13.07
2019-03-01T07:44:55.378Z,14.17
2019-03-01T07:47:22.890Z,11.33
2019-03-01T07:49:50.475Z,12.67
2019-03-01T07:52:17.949Z,11.57
2019-03-01T07:54:45.444Z,12.20
2019-03-01T07:57:14.741Z,9.80
2019-03-01T07:59:43.740Z,8.10
2019-03-01T08:02:11.341Z,7.20
2019-03-01T08:04:39.655Z,7.70
2019-03-01T08:07:07.247Z,5.97
2019-03-01T08:09:36.254Z,9.20
2019-03-01T08:12:07.274Z,6.97
2019-03-01T08:14:33.581Z,6.83
2019-03-01T08:17:01.188Z,6.67
2019-03-01T08:19:29.012Z,6.50
2019-03-01T08:21:56.531Z,7.23
2019-03-01T08:24:26.686Z,6.20
2019-03-01T08:26:54.201Z,5.77
2019-03-01T08:29:22.938Z,7.00
2019-03-01T08:31:52.812Z,7.80
2019-03-01T08:34:19.842Z,10.93
2019-03-01T08:36:47.355Z,9.63
2019-03-01T08:39:14.966Z,9.27
2019-03-01T08:41:42.490Z,8.27
2019-03-01T08:44:09.940Z,7.20
2019-03-01T08:46:37.594Z,7.83
2019-03-01T08:49:06.679Z,7.50
2019-03-01T08:51:34.649Z,10.07
2019-03-01T08:54:02.339Z,9.60
2019-03-01T08:56:30.446Z,7.50
2019-03-01T08:58:58.044Z,7.67
2019-03-01T09:01:26.624Z,7.53
2019-03-01T09:04:03.420Z,7.77
2019-03-01T09:06:36.609Z,10.93
2019-03-01T09:09:08.432Z,10.00
2019-03-01T09:11:36.158Z,9.23
2019-03-01T09:14:04.743Z,10.50
2019-03-01T09:16:32.275Z,10.57
2019-03-01T09:18:59.713Z,11.80
2019-03-01T09:21:27.240Z,12.70
2019-03-01T09:23:55.145Z,11.17
2019-03-01T09:26:22.699Z,10.90
2019-03-01T09:28:50.275Z,12.10
2019-03-01T09:31:17.846Z,12.47
2019-03-01T09:33:47.679Z,11.43
2019-03-01T09:36:25.444Z,12.03
2019-03-01T09:38:53.266Z,13.50
2019-03-01T09:41:20.712Z,14.20
2019-03-01T09:43:49.530Z,14.57
2019-03-01T09:46:17.034Z,14.40
2019-03-01T09:48:45.522Z,14.10
2019-03-01T09:51:15.788Z,14.50
2019-03-01T09:53:43.345Z,12.67
2019-03-01T09:56:12.945Z,12.23
2019-03-01T09:58:40.179Z,11.60
2019-03-01T10:01:11.025Z,9.37
2019-03-01T10:03:38.613Z,9.37
2019-03-01T10:06:06.274Z,8.70
2019-03-01T10:08:33.890Z,8.50
2019-03-01T10:11:01.375Z,9.67
2019-03-01T10:16:00.649Z,9.30
2019-03-01T10:18:29.390Z,11.80
2019-03-01T10:20:56.955Z,10.70
2019-03-01T10:23:25.041Z,10.17
2019-03-01T10:25:52.579Z,9.80
2019-03-01T10:28:20.354Z,8.53
2019-03-01T10:30:48.545Z,7.40
2019-03-01T10:33:17.148Z,6.00
2019-03-01T10:35:44.764Z,7.05
2019-03-01T10:38:12.268Z,4.63
2019-03-01T10:40:39.736Z,4.30
2019-03-01T10:43:07.229Z,3.40
2019-03-01T10:45:34.982Z,3.60
2019-03-01T10:48:02.495Z,3.90
2019-03-01T10:50:30.595Z,3.17
2019-03-01T10:52:58.123Z,4.47
2019-03-01T10:55:26.198Z,3.67
2019-03-01T10:57:54.136Z,2.60
2019-03-01T11:00:23.075Z,4.83
2019-03-01T11:02:50.827Z,3.07
2019-03-01T11:05:18.499Z,3.30
2019-03-01T11:07:48.049Z,3.20
2019-03-01T11:10:17.991Z,2.90
2019-03-01T11:12:45.533Z,2.53
2019-03-01T11:15:14.781Z,3.10
2019-03-01T11:17:42.737Z,3.50
2019-03-01T11:20:10.808Z,2.90
2019-03-01T11:22:38.208Z,1.90
2019-03-01T11:25:06.981Z,2.20
2019-03-01T11:27:34.410Z,3.40
2019-03-01T11:30:02.180Z,2.33
2019-03-01T11:32:32.188Z,3.60
2019-03-01T11:34:59.887Z,2.13
2019-03-01T11:37:27.490Z,2.77
2019-03-01T11:39:54.965Z,2.50
2019-03-01T11:42:22.507Z,2.77
2019-03-01T11:44:49.946Z,3.37
2019-03-01T11:47:17.439Z,2.70
2019-03-01T11:49:45.078Z,3.35
2019-03-01T11:52:12.643Z,1.97
2019-03-01T11:54:39.999Z,2.70
2019-03-01T11:57:07.529Z,3.07
2019-03-01T11:59:35.020Z,1.93
2019-03-01T12:02:02.667Z,2.70
2019-03-01T12:04:31.187Z,2.40
2019-03-01T12:06:58.764Z,2.50
2019-03-01T12:09:39.082Z,2.17
2019-03-01T12:12:06.578Z,3.90
2019-03-01T12:14:34.181Z,2.33
2019-03-01T12:17:01.884Z,2.20
2019-03-01T12:19:32.698Z,2.63
2019-03-01T12:22:00.206Z,1.87
2019-03-01T12:24:27.681Z,3.20
2019-03-01T12:26:57.268Z,2.57
2019-03-01T12:29:25.727Z,2.20
2019-03-01T12:31:53.292Z,2.27
2019-03-01T12:34:20.755Z,3.07
2019-03-01T12:36:48.708Z,1.80
2019-03-01T12:39:16.234Z,2.27
2019-03-01T12:41:44.667Z,2.40
2019-03-01T12:44:12.240Z,3.70
2019-03-01T12:46:40.000Z,2.33
2019-03-01T12:49:07.897Z,1.80
2019-03-01T12:51:35.459Z,1.90
2019-03-01T12:54:03.045Z,2.33
2019-03-01T12:56:30.450Z,2.50
2019-03-01T12:58:57.869Z,1.93
2019-03-01T13:01:26.010Z,2.80
2019-03-01T13:03:53.523Z,2.10
2019-03-01T13:06:21.022Z,2.60
2019-03-01T13:08:51.536Z,2.20
2019-03-01T13:11:17.951Z,2.20
2019-03-01T13:13:45.408Z,2.20
2019-03-01T13:16:13.002Z,2.67
2019-03-01T13:18:40.539Z,2.47
2019-03-01T13:21:09.637Z,2.23
2019-03-01T13:23:37.605Z,3.00
2019-03-01T13:26:07.026Z,2.40
2019-03-01T13:28:34.749Z,2.40
2019-03-01T13:31:02.284Z,3.30
2019-03-01T13:33:34.702Z,2.50
2019-03-01T13:36:03.550Z,2.70
2019-03-01T13:38:34.060Z,2.63
2019-03-01T13:41:02.244Z,2.30
2019-03-01T13:43:33.329Z,2.17
2019-03-01T13:46:01.039Z,2.47
2019-03-01T13:48:30.166Z,2.43
2019-03-01T13:50:57.661Z,2.00
2019-03-01T13:53:25.703Z,2.80
2019-03-01T13:55:56.333Z,2.60
2019-03-01T13:58:26.793Z,2.90
2019-03-01T14:00:52.180Z,2.53
2019-03-01T14:03:20.720Z,2.57
2019-03-01T14:05:54.724Z,2.60
2019-03-01T14:08:21.275Z,2.40
2019-03-01T14:11:08.438Z,2.07
2019-03-01T14:13:35.914Z,2.20
2019-03-01T14:16:03.302Z,2.53
2019-03-01T14:18:33.349Z,3.03
2019-03-01T14:21:00.147Z,2.20
2019-03-01T14:23:27.810Z,2.93
2019-03-01T14:25:55.730Z,3.77
2019-03-01T14:28:23.188Z,1.77
2019-03-01T14:30:51.098Z,2.90
2019-03-01T14:33:18.721Z,2.33
2019-03-01T14:35:46.135Z,2.50
2019-03-01T14:38:13.583Z,2.53
2019-03-01T14:40:41.093Z,2.80
2019-03-01T14:43:08.649Z,1.90
2019-03-01T14:45:36.073Z,2.23
2019-03-01T14:48:05.076Z,2.40
2019-03-01T14:50:33.623Z,2.40
2019-03-01T14:53:03.321Z,2.10
2019-03-01T14:55:34.966Z,2.85
2019-03-01T14:58:11.878Z,2.10
2019-03-01T15:00:50.803Z,2.70
2019-03-01T15:03:33.238Z,2.80
2019-03-01T15:06:00.829Z,2.83
2019-03-01T15:08:29.339Z,4.03
2019-03-01T15:10:58.632Z,2.33
2019-03-01T15:13:27.778Z,2.20
2019-03-01T15:15:55.719Z,4.93
2019-03-01T15:18:25.022Z,2.30
2019-03-01T15:20:56.240Z,4.10
2019-03-01T15:23:24.033Z,3.23
2019-03-01T15:25:54.486Z,2.10
2019-03-01T15:28:23.742Z,3.10
2019-03-01T15:30:51.269Z,3.97
2019-03-01T15:33:18.846Z,2.03
2019-03-01T15:35:46.328Z,2.20
2019-03-01T15:38:13.846Z,2.67
2019-03-01T15:40:41.434Z,2.00
2019-03-01T15:43:09.213Z,2.60
2019-03-01T15:45:39.812Z,4.80
2019-03-01T15:48:06.043Z,3.92
2019-03-01T15:50:33.540Z,3.58
2019-03-01T15:53:01.009Z,2.80
2019-03-01T15:55:29.717Z,3.30
2019-03-01T15:57:57.437Z,3.30
2019-03-01T16:00:25.602Z,3.80
2019-03-01T16:02:54.667Z,3.40
2019-03-01T16:05:23.211Z,2.57
2019-03-01T16:07:51.190Z,3.03
2019-03-01T16:10:18.671Z,3.80
2019-03-01T16:12:46.271Z,2.97
2019-03-01T16:15:13.766Z,3.10
2019-03-01T16:17:41.510Z,2.73
2019-03-01T16:20:11.099Z,2.93
2019-03-01T16:22:38.824Z,3.03
2019-03-01T16:25:08.509Z,3.10
2019-03-01T16:27:36.096Z,3.57
2019-03-01T16:30:04.226Z,2.80
2019-03-01T16:32:32.083Z,3.83
2019-03-01T16:35:00.576Z,4.40
2019-03-01T16:37:29.479Z,3.47
2019-03-01T16:40:00.243Z,3.37
2019-03-01T16:42:26.255Z,3.30
2019-03-01T16:44:53.741Z,4.30
2019-03-01T16:47:23.265Z,2.90
2019-03-01T16:49:51.363Z,3.03
2019-03-01T16:52:18.907Z,3.70
2019-03-01T16:54:47.557Z,3.97
2019-03-01T16:57:15.716Z,4.90
2019-03-01T16:59:43.736Z,3.67
2019-03-01T17:02:11.326Z,4.67
2019-03-01T17:04:38.639Z,3.70
2019-03-01T17:07:06.032Z,3.33
2019-03-01T17:09:33.575Z,4.20
2019-03-01T17:12:02.235Z,4.70
2019-03-01T17:14:29.741Z,5.57
2019-03-01T17:16:59.695Z,5.40
2019-03-01T17:19:27.671Z,5.92
2019-03-01T17:21:55.431Z,5.40
2019-03-01T17:24:23.226Z,4.30
2019-03-01T17:26:50.818Z,3.87
2019-03-01T17:29:18.339Z,4.15
2019-03-01T17:31:45.804Z,3.10
2019-03-01T17:34:13.363Z,2.87
2019-03-01T17:36:40.895Z,3.77
2019-03-01T17:39:08.447Z,4.83
2019-03-01T17:41:37.869Z,3.70
2019-03-01T17:44:08.530Z,4.47
2019-03-01T17:46:34.788Z,4.90
2019-03-01T17:49:02.427Z,5.33
2019-03-01T17:51:30.214Z,3.63
2019-03-01T17:53:57.811Z,3.00
2019-03-01T17:56:25.762Z,4.20
2019-03-01T17:58:53.187Z,4.17
2019-03-01T18:01:20.756Z,4.47
2019-03-01T18:03:48.483Z,3.60
2019-03-01T18:06:16.874Z,3.87
2019-03-01T18:08:45.323Z,4.93
2019-03-01T18:11:12.895Z,3.97
2019-03-01T18:13:40.439Z,3.07
2019-03-01T18:16:07.947Z,2.90
2019-03-01T18:18:35.368Z,3.47
2019-03-01T18:21:03.936Z,4.20
2019-03-01T18:23:34.174Z,3.03
2019-03-01T18:26:03.335Z,3.80
2019-03-01T18:28:33.059Z,3.03
2019-03-01T18:31:00.742Z,3.10
2019-03-01T18:33:30.752Z,3.57
2019-03-01T18:35:58.182Z,3.50
2019-03-01T18:38:27.645Z,4.33
2019-03-01T18:40:55.520Z,4.50
2019-03-01T18:43:24.603Z,4.60
2019-03-01T18:45:52.574Z,5.20
2019-03-01T18:48:20.233Z,5.40
2019-03-01T18:50:47.783Z,3.80
2019-03-01T18:53:15.907Z,3.60
2019-03-01T18:55:44.055Z,3.93
2019-03-01T18:58:13.964Z,6.00
2019-03-01T19:00:42.653Z,4.27
2019-03-01T19:03:10.152Z,5.37
2019-03-01T19:05:40.043Z,4.33
2019-03-01T19:08:07.342Z,4.80
2019-03-01T19:10:35.096Z,4.13
2019-03-01T19:13:02.677Z,3.70
2019-03-01T19:15:30.462Z,3.37
2019-03-01T19:17:58.048Z,4.10
2019-03-01T19:20:26.584Z,3.37
2019-03-01T19:22:54.338Z,3.77
2019-03-01T19:25:25.155Z,3.47
2019-03-01T19:27:52.601Z,3.03
2019-03-01T19:30:21.564Z,2.93
2019-03-01T19:32:50.277Z,3.03
2019-03-01T19:35:17.995Z,3.60
2019-03-01T19:37:45.859Z,3.60
2019-03-01T19:40:16.720Z,3.17
2019-03-01T19:43:06.942Z,4.63
2019-03-01T19:45:37.530Z,6.60
2019-03-01T19:48:05.241Z,6.53
2019-03-01T19:50:32.930Z,6.17
2019-03-01T19:53:00.644Z,3.70
2019-03-01T19:55:29.149Z,5.60
2019-03-01T19:57:56.904Z,5.00
2019-03-01T20:00:25.659Z,3.10
2019-03-01T20:02:53.308Z,3.80
2019-03-01T20:05:27.953Z,3.20
2019-03-01T20:07:56.029Z,3.40
2019-03-01T20:10:27.116Z,4.70
2019-03-01T20:12:57.146Z,3.87
2019-03-01T20:15:25.099Z,2.80
2019-03-01T20:17:53.270Z,3.20
2019-03-01T20:20:21.812Z,2.30
2019-03-01T20:22:59.552Z,3.00
2019-03-01T20:25:27.733Z,4.33
2019-03-01T20:27:57.952Z,3.20
2019-03-01T20:30:30.183Z,3.37
2019-03-01T20:32:56.218Z,3.07
2019-03-01T20:35:26.131Z,3.27
2019-03-01T20:37:54.383Z,3.07
2019-03-01T20:40:34.925Z,2.90
2019-03-01T20:43:06.711Z,3.57
2019-03-01T20:45:31.867Z,3.13
2019-03-01T20:48:00.119Z,3.20
2019-03-01T20:50:29.231Z,3.17
2019-03-01T20:52:56.984Z,2.57
2019-03-01T20:55:28.444Z,3.50
2019-03-01T20:57:59.826Z,3.30
2019-03-01T21:00:27.123Z,3.40
2019-03-01T21:02:54.805Z,3.60
2019-03-01T21:05:25.123Z,2.80
2019-03-01T21:07:54.124Z,2.70
2019-03-01T21:10:23.269Z,4.10
2019-03-01T21:12:51.001Z,3.10
2019-03-01T21:15:18.624Z,3.50
2019-03-01T21:17:46.380Z,2.40
2019-03-01T21:20:19.215Z,2.97
2019-03-01T21:22:45.193Z,2.97
2019-03-01T21:25:13.738Z,2.70
2019-03-01T21:27:41.350Z,3.27
2019-03-01T21:30:17.247Z,3.17
2019-03-01T21:32:46.925Z,2.20
2019-03-01T21:35:16.678Z,3.20
2019-03-01T21:37:44.097Z,2.83
2019-03-01T21:40:11.891Z,2.40
2019-03-01T21:42:39.321Z,2.80
2019-03-01T21:45:08.414Z,3.80
2019-03-01T21:47:35.887Z,3.17
2019-03-01T21:50:05.528Z,2.30
2019-03-01T21:52:33.147Z,3.83
2019-03-01T21:55:02.086Z,2.33
2019-03-01T21:57:31.165Z,3.27
2019-03-01T21:59:59.094Z,3.87
2019-03-01T22:02:26.923Z,3.80
2019-03-01T22:04:54.581Z,3.20
2019-03-01T22:07:24.638Z,3.17
2019-03-01T22:09:52.928Z,4.50
2019-03-01T22:12:20.862Z,3.80
2019-03-01T22:14:50.038Z,3.27
2019-03-01T22:17:17.493Z,4.03
2019-03-01T22:19:45.039Z,2.67
2019-03-01T22:22:12.567Z,2.70
2019-03-01T22:24:40.343Z,3.27
2019-03-01T22:27:08.319Z,3.55
2019-03-01T22:29:37.040Z,3.70
2019-03-01T22:32:07.337Z,3.40
2019-03-01T22:34:33.778Z,4.43
2019-03-01T22:37:02.466Z,3.13
2019-03-01T22:39:29.993Z,3.00
2019-03-01T22:41:57.789Z,2.83
2019-03-01T22:44:25.388Z,3.37
2019-03-01T22:46:53.021Z,3.03
2019-03-01T22:49:20.747Z,2.83
2019-03-01T22:51:49.555Z,3.40
2019-03-01T22:54:18.962Z,3.53
2019-03-01T22:56:48.484Z,3.50
2019-03-01T22:59:16.246Z,3.33
2019-03-01T23:01:46.354Z,3.80
2019-03-01T23:04:13.824Z,4.43
2019-03-01T23:06:41.294Z,3.90
2019-03-01T23:09:13.657Z,4.30
2019-03-01T23:11:41.444Z,4.13
2019-03-01T23:14:08.919Z,4.67
2019-03-01T23:16:36.378Z,4.97
2019-03-01T23:19:04.103Z,4.93
2019-03-01T23:21:32.684Z,4.87
2019-03-01T23:24:01.207Z,4.27
2019-03-01T23:26:29.103Z,4.43
2019-03-01T23:28:56.765Z,4.30
2019-03-01T23:31:24.593Z,4.80
2019-03-01T23:33:53.057Z,4.83
2019-03-01T23:36:20.497Z,4.37
2019-03-01T23:38:50.211Z,4.33
2019-03-01T23:41:31.090Z,4.40
2019-03-01T23:43:58.813Z,4.23
2019-03-01T23:46:28.600Z,4.60
2019-03-01T23:49:05.852Z,4.40
2019-03-01T23:51:26.743Z,4.60
2019-03-01T23:53:54.175Z,4.20
2019-03-01T23:56:21.731Z,4.83
2019-03-01T23:58:51.825Z,3.67
